createdAt,value
2023-04-28T00:00:51.793Z,10.00
2023-04-28T00:03:32.249Z,9.50
2023-04-28T00:06:05.812Z,9.70
2023-04-28T00:08:47.824Z,9.50
2023-04-28T00:11:20.902Z,9.60
2023-04-28T00:13:56.535Z,9.80
2023-04-28T00:16:28.780Z,10.20
2023-04-28T00:19:10.177Z,10.20
2023-04-28T00:21:43.405Z,10.70
2023-04-28T00:24:15.969Z,10.30
2023-04-28T00:26:48.045Z,10.10
2023-04-28T00:29:21.280Z,9.80
2023-04-28T00:31:53.892Z,9.20
2023-04-28T00:34:27.097Z,10.00
2023-04-28T00:36:59.850Z,10.40
2023-04-28T00:39:32.184Z,8.80
2023-04-28T00:42:05.730Z,8.80
2023-04-28T00:44:36.072Z,9.00
2023-04-28T00:47:07.462Z,8.40
2023-04-28T00:49:41.086Z,9.20
2023-04-28T00:52:14.183Z,9.10
2023-04-28T00:54:47.895Z,9.00
2023-04-28T00:57:20.393Z,8.50
2023-04-28T00:59:56.445Z,8.90
2023-04-28T01:02:30.779Z,9.40
2023-04-28T01:05:04.479Z,8.70
2023-04-28T01:07:37.239Z,8.60
2023-04-28T01:10:29.194Z,8.60
2023-04-28T01:13:02.574Z,8.60
2023-04-28T01:15:35.057Z,8.40
2023-04-28T01:18:09.405Z,8.40
2023-04-28T01:20:42.718Z,9.10
2023-04-28T01:23:16.431Z,9.30
2023-04-28T01:25:50.131Z,10.60
2023-04-28T01:28:23.395Z,11.20
2023-04-28T01:31:00.207Z,10.90
2023-04-28T01:33:33.712Z,11.10
2023-04-28T01:36:09.072Z,10.40
2023-04-28T01:38:43.938Z,9.90
2023-04-28T01:41:19.235Z,9.90
2023-04-28T01:43:52.885Z,10.90
2023-04-28T01:46:25.182Z,11.30
2023-04-28T01:48:59.066Z,10.60
2023-04-28T01:51:34.378Z,11.50
2023-04-28T01:54:09.127Z,10.50
2023-04-28T01:56:41.004Z,11.10
2023-04-28T01:59:15.159Z,10.90
2023-04-28T02:01:48.876Z,11.60
2023-04-28T02:04:24.153Z,12.30
2023-04-28T02:06:57.020Z,13.10
2023-04-28T02:09:31.928Z,14.30
2023-04-28T02:12:04.826Z,13.70
2023-04-28T02:14:39.830Z,13.90
2023-04-28T02:17:14.144Z,13.60
2023-04-28T02:19:47.234Z,12.60
2023-04-28T02:22:20.336Z,13.50
2023-04-28T02:24:56.150Z,13.00
2023-04-28T02:27:38.474Z,11.60
2023-04-28T02:30:14.728Z,11.40
2023-04-28T02:32:51.106Z,11.40
2023-04-28T02:35:25.664Z,12.30
2023-04-28T02:37:56.979Z,13.20
2023-04-28T02:40:30.468Z,13.00
2023-04-28T02:43:04.292Z,12.90
2023-04-28T02:45:36.266Z,12.50
2023-04-28T02:48:07.294Z,13.50
2023-04-28T02:50:42.879Z,16.40
2023-04-28T02:53:15.399Z,15.60
2023-04-28T02:55:48.498Z,14.90
2023-04-28T02:58:21.417Z,12.50
2023-04-28T03:00:55.232Z,12.90
2023-04-28T03:03:28.218Z,13.00
2023-04-28T03:06:06.172Z,12.60
2023-04-28T03:08:40.617Z,13.30
2023-04-28T03:11:16.929Z,12.20
2023-04-28T03:13:54.964Z,12.00
2023-04-28T03:16:28.496Z,12.20
2023-04-28T03:19:03.678Z,11.60
2023-04-28T03:21:40.161Z,11.50
2023-04-28T03:24:18.112Z,12.10
2023-04-28T03:26:50.600Z,12.30
2023-04-28T03:29:23.849Z,12.10
2023-04-28T03:31:58.128Z,13.00
2023-04-28T03:34:32.029Z,13.80
2023-04-28T03:37:05.083Z,13.70
2023-04-28T03:39:35.912Z,12.50
2023-04-28T03:42:09.701Z,13.00
2023-04-28T03:45:04.612Z,13.20
2023-04-28T03:47:36.515Z,13.40
2023-04-28T03:50:13.053Z,14.10
2023-04-28T03:52:46.708Z,14.10
2023-04-28T03:55:21.548Z,14.40
2023-04-28T03:57:56.172Z,16.20
2023-04-28T04:00:32.443Z,16.00
2023-04-28T04:03:05.276Z,15.70
2023-04-28T04:05:41.124Z,16.10
2023-04-28T04:08:16.483Z,15.40
2023-04-28T04:10:53.052Z,15.30
2023-04-28T04:13:26.846Z,15.10
2023-04-28T04:16:00.817Z,15.40
2023-04-28T04:18:32.952Z,14.70
2023-04-28T04:21:30.669Z,15.20
2023-04-28T04:24:04.015Z,15.40
2023-04-28T04:26:39.701Z,15.50
2023-04-28T04:29:28.291Z,16.30
2023-04-28T04:32:02.251Z,16.60
2023-04-28T04:34:36.607Z,16.20
2023-04-28T04:37:09.507Z,16.90
2023-04-28T04:39:46.249Z,17.60
2023-04-28T04:42:25.396Z,17.00
2023-04-28T04:45:28.233Z,15.90
2023-04-28T04:48:02.042Z,16.80
2023-04-28T04:50:37.012Z,16.10
2023-04-28T04:53:14.783Z,16.20
2023-04-28T04:55:48.410Z,15.90
2023-04-28T04:58:23.878Z,16.30
2023-04-28T05:01:29.287Z,16.10
2023-04-28T05:04:03.073Z,15.50
2023-04-28T05:06:36.679Z,16.10
2023-04-28T05:09:09.666Z,16.00
2023-04-28T05:11:46.747Z,16.60
2023-04-28T05:14:20.143Z,16.00
2023-04-28T05:16:57.562Z,16.70
2023-04-28T05:19:37.812Z,16.20
2023-04-28T05:22:10.153Z,15.90
2023-04-28T05:24:43.274Z,16.90
2023-04-28T05:27:16.801Z,15.20
2023-04-28T05:29:49.813Z,16.00
2023-04-28T05:32:22.487Z,15.00
2023-04-28T05:35:01.839Z,15.50
2023-04-28T05:37:34.674Z,15.00
2023-04-28T05:40:13.880Z,13.20
2023-04-28T05:42:57.055Z,13.20
2023-04-28T05:45:32.229Z,13.30
2023-04-28T05:48:07.198Z,12.50
2023-04-28T05:50:41.547Z,12.60
2023-04-28T05:53:21.365Z,11.80
2023-04-28T05:55:54.142Z,11.80
2023-04-28T05:58:25.110Z,12.30
2023-04-28T06:01:00.436Z,10.70
2023-04-28T06:03:32.539Z,10.80
2023-04-28T06:06:09.947Z,10.90
2023-04-28T06:08:47.358Z,10.70
2023-04-28T06:11:22.501Z,10.90
2023-04-28T06:13:55.671Z,10.00
2023-04-28T06:16:33.477Z,9.40
2023-04-28T06:19:12.232Z,9.60
2023-04-28T06:21:47.461Z,7.70
2023-04-28T06:24:19.684Z,6.80
2023-04-28T06:26:54.830Z,6.80
2023-04-28T06:29:28.098Z,6.70
2023-04-28T06:32:02.030Z,6.60
2023-04-28T06:34:34.007Z,5.90
2023-04-28T06:37:07.660Z,5.90
2023-04-28T06:39:39.971Z,5.30
2023-04-28T06:42:11.703Z,4.90
2023-04-28T06:44:48.418Z,4.50
2023-04-28T06:47:18.951Z,4.80
2023-04-28T06:49:54.236Z,4.50
2023-04-28T06:52:38.434Z,4.30
2023-04-28T06:55:17.268Z,4.20
2023-04-28T06:57:52.521Z,4.30
2023-04-28T07:00:29.184Z,3.70
2023-04-28T07:03:00.980Z,2.80
2023-04-28T07:05:34.317Z,3.30
2023-04-28T07:08:09.781Z,10.40
2023-04-28T07:10:42.782Z,3.80
2023-04-28T07:13:14.932Z,2.80
2023-04-28T07:15:47.372Z,4.00
2023-04-28T07:18:22.710Z,3.20
2023-04-28T07:20:58.796Z,2.20
2023-04-28T07:23:32.607Z,2.00
2023-04-28T07:26:05.588Z,2.30
2023-04-28T07:28:37.279Z,2.50
2023-04-28T07:31:10.943Z,2.70
2023-04-28T07:33:43.843Z,3.00
2023-04-28T07:36:32.247Z,2.50
2023-04-28T07:39:04.107Z,2.10
2023-04-28T07:41:40.668Z,2.30
2023-04-28T07:44:12.949Z,1.80
2023-04-28T07:46:46.693Z,2.30
2023-04-28T07:49:19.377Z,2.30
2023-04-28T07:51:55.556Z,2.30
2023-04-28T07:54:37.006Z,3.10
2023-04-28T07:57:10.360Z,30.60
2023-04-28T07:59:43.020Z,26.60
2023-04-28T08:02:15.638Z,3.80
2023-04-28T08:04:50.194Z,2.30
2023-04-28T08:07:25.146Z,2.40
2023-04-28T08:10:15.438Z,2.10
2023-04-28T08:12:47.657Z,1.80
2023-04-28T08:15:20.113Z,2.00
2023-04-28T08:17:56.456Z,1.90
2023-04-28T08:20:33.298Z,1.60
2023-04-28T08:23:05.240Z,1.80
2023-04-28T08:25:37.627Z,2.90
2023-04-28T08:28:10.544Z,1.80
2023-04-28T08:30:46.314Z,1.70
2023-04-28T08:33:20.488Z,1.90
2023-04-28T08:35:55.740Z,1.80
2023-04-28T08:38:30.518Z,2.10
2023-04-28T08:41:05.742Z,3.20
2023-04-28T08:43:37.969Z,2.00
2023-04-28T08:46:10.144Z,4.00
2023-04-28T08:48:47.113Z,3.30
2023-04-28T08:51:27.302Z,2.60
2023-04-28T08:56:46.133Z,1.90
2023-04-28T08:59:20.367Z,2.10
2023-04-28T09:01:59.996Z,2.20
2023-04-28T09:04:33.854Z,2.00
2023-04-28T09:07:13.226Z,1.80
2023-04-28T09:09:47.208Z,1.70
2023-04-28T09:12:24.461Z,1.70
2023-04-28T09:15:09.282Z,1.70
2023-04-28T09:17:51.750Z,1.60
2023-04-28T09:20:26.267Z,1.80
2023-04-28T09:23:15.440Z,1.70
2023-04-28T09:26:02.023Z,1.60
2023-04-28T09:28:35.094Z,1.60
2023-04-28T09:31:07.251Z,1.80
2023-04-28T09:33:58.383Z,2.10
2023-04-28T09:36:34.427Z,1.60
2023-04-28T09:39:08.205Z,1.60
2023-04-28T09:41:41.118Z,1.60
2023-04-28T09:44:15.569Z,2.00
2023-04-28T09:46:49.761Z,2.30
2023-04-28T09:49:23.344Z,2.10
2023-04-28T09:52:13.903Z,1.90
2023-04-28T09:54:45.465Z,2.30
2023-04-28T09:57:19.818Z,2.30
2023-04-28T09:59:55.368Z,2.20
2023-04-28T10:05:25.172Z,2.40
2023-04-28T10:08:00.305Z,2.50
2023-04-28T10:10:32.622Z,2.00
2023-04-28T10:13:04.748Z,2.20
2023-04-28T10:15:38.847Z,2.50
2023-04-28T10:18:13.303Z,2.00
2023-04-28T10:20:48.279Z,1.90
2023-04-28T10:23:57.251Z,1.90
2023-04-28T10:26:54.547Z,2.00
2023-04-28T10:29:30.112Z,2.00
2023-04-28T10:32:26.497Z,2.10
2023-04-28T10:35:37.280Z,2.00
2023-04-28T10:38:12.439Z,2.10
2023-04-28T10:40:46.746Z,1.90
2023-04-28T10:43:40.358Z,1.80
2023-04-28T10:46:14.324Z,1.80
2023-04-28T10:48:59.752Z,2.00
2023-04-28T10:51:45.372Z,2.00
2023-04-28T10:54:20.834Z,2.00
2023-04-28T10:57:24.931Z,1.80
2023-04-28T11:00:36.519Z,1.80
2023-04-28T11:03:07.539Z,2.10
2023-04-28T11:05:40.264Z,1.60
2023-04-28T11:08:35.611Z,2.00
2023-04-28T11:12:04.376Z,2.10
2023-04-28T11:14:40.009Z,2.60
2023-04-28T11:17:13.806Z,2.90
2023-04-28T11:19:49.179Z,4.20
2023-04-28T11:22:24.843Z,2.50
2023-04-28T11:25:01.398Z,2.00
2023-04-28T11:27:35.152Z,2.40
2023-04-28T11:30:26.143Z,2.10
2023-04-28T11:32:59.097Z,8.80
2023-04-28T11:35:47.476Z,11.90
2023-04-28T11:38:19.410Z,4.50
2023-04-28T11:41:00.863Z,3.40
2023-04-28T11:43:44.024Z,3.50
2023-04-28T11:46:23.060Z,32.40
2023-04-28T11:49:07.434Z,22.80
2023-04-28T11:51:40.879Z,15.10
2023-04-28T11:54:16.667Z,2.60
2023-04-28T11:56:54.768Z,2.60
2023-04-28T11:59:31.117Z,2.50
2023-04-28T12:02:04.208Z,2.30
2023-04-28T12:04:39.237Z,2.80
2023-04-28T12:07:16.013Z,2.80
2023-04-28T12:09:49.461Z,3.40
2023-04-28T12:15:25.462Z,3.90
2023-04-28T12:18:10.253Z,2.60
2023-04-28T12:20:43.295Z,129.00
2023-04-28T12:23:16.514Z,68.50
2023-04-28T12:25:48.864Z,20.70
2023-04-28T12:28:20.952Z,4.30
2023-04-28T12:31:04.273Z,4.50
2023-04-28T12:33:38.689Z,3.60
2023-04-28T12:36:10.507Z,3.00
2023-04-28T12:38:50.840Z,3.00
2023-04-28T12:41:24.814Z,6.90
2023-04-28T12:43:56.757Z,3.20
2023-04-28T12:46:31.623Z,3.00
2023-04-28T12:49:04.860Z,3.60
2023-04-28T12:51:39.932Z,3.90
2023-04-28T12:54:12.309Z,3.80
2023-04-28T12:56:45.082Z,3.90
2023-04-28T12:59:18.600Z,3.70
2023-04-28T13:01:52.722Z,3.90
2023-04-28T13:04:26.769Z,4.30
2023-04-28T13:07:00.635Z,4.30
2023-04-28T13:09:34.217Z,4.30
2023-04-28T13:12:08.005Z,4.10
2023-04-28T13:14:40.747Z,4.10
2023-04-28T13:17:14.588Z,4.40
2023-04-28T13:19:50.722Z,4.20
2023-04-28T13:22:24.039Z,4.40
2023-04-28T13:24:56.489Z,4.30
2023-04-28T13:27:30.546Z,4.80
2023-04-28T13:30:05.520Z,4.40
2023-04-28T13:32:40.038Z,5.30
2023-04-28T13:35:12.697Z,4.20
2023-04-28T13:37:49.112Z,4.20
2023-04-28T13:40:21.088Z,4.20
2023-04-28T13:42:55.359Z,4.20
2023-04-28T13:45:31.108Z,4.80
2023-04-28T13:48:27.516Z,4.30
2023-04-28T13:50:59.901Z,4.20
2023-04-28T13:53:33.237Z,4.30
2023-04-28T13:56:09.066Z,4.00
2023-04-28T13:58:44.181Z,4.10
2023-04-28T14:01:16.184Z,4.40
2023-04-28T14:03:51.772Z,4.10
2023-04-28T14:06:23.756Z,4.30
2023-04-28T14:09:20.251Z,6.20
2023-04-28T14:12:00.698Z,4.30
2023-04-28T14:14:40.438Z,4.10
2023-04-28T14:17:17.213Z,4.30
2023-04-28T14:19:53.695Z,3.90
2023-04-28T14:22:31.047Z,4.10
2023-04-28T14:25:03.424Z,3.90
2023-04-28T14:27:36.020Z,4.30
2023-04-28T14:30:12.054Z,4.00
2023-04-28T14:32:43.459Z,4.50
2023-04-28T14:35:20.463Z,4.10
2023-04-28T14:37:54.686Z,3.90
2023-04-28T14:40:27.145Z,3.80
2023-04-28T14:42:59.202Z,4.10
2023-04-28T14:45:36.176Z,4.20
2023-04-28T14:48:10.706Z,4.20
2023-04-28T15:08:07.854Z,4.90
2023-04-28T15:10:42.977Z,5.00
2023-04-28T15:13:40.436Z,4.50
2023-04-28T15:16:13.478Z,4.70
2023-04-28T15:18:48.633Z,5.00
2023-04-28T15:21:23.256Z,4.70
2023-04-28T15:23:57.047Z,4.80
2023-04-28T15:26:33.909Z,5.10
2023-04-28T15:29:06.891Z,6.40
2023-04-28T15:31:41.288Z,6.50
2023-04-28T15:34:18.715Z,4.80
2023-04-28T15:36:49.741Z,5.10
2023-04-28T15:39:22.218Z,4.90
2023-04-28T15:41:54.528Z,5.40
2023-04-28T15:44:28.062Z,5.50
2023-04-28T15:47:07.246Z,9.00
2023-04-28T15:49:41.184Z,6.20
2023-04-28T15:52:13.992Z,5.40
2023-04-28T15:54:47.310Z,5.30
2023-04-28T15:57:17.660Z,5.30
2023-04-28T15:59:52.219Z,5.20
2023-04-28T16:02:25.691Z,5.40
2023-04-28T16:05:00.227Z,4.80
2023-04-28T16:07:37.680Z,4.70
2023-04-28T16:10:13.122Z,5.70
2023-04-28T16:12:44.863Z,5.40
2023-04-28T16:15:17.854Z,4.90
2023-04-28T16:17:53.065Z,5.30
2023-04-28T16:20:27.041Z,5.60
2023-04-28T16:22:58.650Z,5.50
2023-04-28T16:25:31.841Z,5.70
2023-04-28T16:28:07.658Z,5.80
2023-04-28T16:30:42.103Z,9.10
2023-04-28T16:33:13.965Z,8.10
2023-04-28T16:35:55.691Z,7.20
2023-04-28T16:38:25.676Z,6.00
2023-04-28T16:40:58.420Z,5.20
2023-04-28T16:43:30.115Z,5.70
2023-04-28T16:46:01.658Z,4.90
2023-04-28T16:48:33.877Z,5.70
2023-04-28T16:51:10.041Z,5.70
2023-04-28T16:53:44.168Z,5.90
2023-04-28T16:56:17.166Z,5.50
2023-04-28T16:58:50.240Z,5.60
2023-04-28T17:01:22.753Z,5.40
2023-04-28T17:03:55.722Z,5.80
2023-04-28T17:06:29.648Z,6.90
2023-04-28T17:09:03.921Z,7.60
2023-04-28T17:11:37.145Z,6.10
2023-04-28T17:14:10.021Z,6.10
2023-04-28T17:16:43.619Z,6.00
2023-04-28T17:19:17.222Z,5.70
2023-04-28T17:21:49.453Z,5.30
2023-04-28T17:24:25.939Z,5.50
2023-04-28T17:26:58.680Z,5.60
2023-04-28T17:29:30.482Z,5.60
2023-04-28T17:32:04.396Z,5.40
2023-04-28T17:34:36.032Z,6.10
2023-04-28T17:37:08.494Z,6.00
2023-04-28T17:39:39.253Z,7.20
2023-04-28T17:42:12.400Z,6.60
2023-04-28T17:44:44.405Z,7.10
2023-04-28T17:47:18.915Z,7.30
2023-04-28T17:49:52.702Z,6.20
2023-04-28T17:52:32.596Z,6.00
2023-04-28T17:55:05.640Z,6.00
2023-04-28T17:57:39.118Z,6.30
2023-04-28T18:00:13.006Z,10.20
2023-04-28T18:02:44.147Z,7.70
2023-04-28T18:05:17.083Z,6.70
2023-04-28T18:07:54.001Z,6.80
2023-04-28T18:10:28.193Z,7.20
2023-04-28T18:13:07.060Z,6.50
2023-04-28T18:15:58.242Z,6.70
2023-04-28T18:18:35.604Z,7.60
2023-04-28T18:21:14.924Z,7.20
2023-04-28T18:23:49.033Z,7.60
2023-04-28T18:26:22.931Z,6.60
2023-04-28T18:28:54.980Z,7.20
2023-04-28T18:31:27.853Z,7.20
2023-04-28T18:34:01.063Z,7.60
2023-04-28T18:36:39.704Z,7.40
2023-04-28T18:39:12.080Z,7.40
2023-04-28T18:41:44.309Z,7.10
2023-04-28T18:44:19.073Z,8.70
2023-04-28T18:46:52.408Z,10.50
2023-04-28T18:49:25.977Z,9.60
2023-04-28T18:52:02.813Z,9.70
2023-04-28T18:54:34.688Z,10.90
2023-04-28T18:57:07.935Z,11.30
2023-04-28T18:59:41.814Z,11.10
2023-04-28T19:02:18.757Z,11.50
2023-04-28T19:04:52.353Z,11.90
2023-04-28T19:07:24.680Z,11.20
2023-04-28T19:09:55.215Z,11.00
2023-04-28T19:12:27.863Z,10.30
2023-04-28T19:14:59.609Z,11.00
2023-04-28T19:17:42.167Z,11.50
2023-04-28T19:20:14.252Z,11.80
2023-04-28T19:22:49.049Z,11.60
2023-04-28T19:25:25.467Z,12.90
2023-04-28T19:28:02.074Z,13.20
2023-04-28T19:30:33.547Z,12.40
2023-04-28T19:33:05.815Z,12.40
2023-04-28T19:35:37.725Z,11.50
2023-04-28T19:38:10.792Z,11.90
2023-04-28T19:40:42.473Z,12.70
2023-04-28T19:43:16.074Z,12.40
2023-04-28T19:45:48.790Z,12.40
2023-04-28T19:48:21.305Z,12.90
2023-04-28T19:50:52.641Z,13.50
2023-04-28T19:53:34.883Z,13.00
2023-04-28T19:56:07.805Z,13.50
2023-04-28T19:58:43.754Z,13.00
2023-04-28T20:01:18.096Z,13.20
2023-04-28T20:03:56.241Z,12.20
2023-04-28T20:06:26.344Z,13.20
2023-04-28T20:09:01.152Z,12.30
2023-04-28T20:11:34.533Z,13.30
2023-04-28T20:14:12.245Z,12.70
2023-04-28T20:16:46.030Z,13.60
2023-04-28T20:19:20.113Z,14.20
2023-04-28T20:21:53.270Z,14.20
2023-04-28T20:24:24.782Z,13.40
2023-04-28T20:26:59.092Z,14.10
2023-04-28T20:29:31.461Z,14.00
2023-04-28T20:32:04.257Z,13.90
2023-04-28T20:34:36.706Z,13.70
2023-04-28T20:37:07.707Z,14.10
2023-04-28T20:39:41.095Z,14.90
2023-04-28T20:42:18.157Z,13.40
2023-04-28T20:44:52.270Z,14.00
2023-04-28T20:47:25.020Z,13.80
2023-04-28T20:49:57.777Z,13.40
2023-04-28T20:52:31.718Z,13.20
2023-04-28T20:55:04.871Z,13.50
2023-04-28T20:57:53.499Z,13.90
2023-04-28T21:00:26.553Z,13.20
2023-04-28T21:02:57.853Z,13.60
2023-04-28T21:05:31.299Z,13.20
2023-04-28T21:08:08.172Z,12.90
2023-04-28T21:10:41.089Z,13.10
2023-04-28T21:13:16.037Z,13.30
2023-04-28T21:15:47.294Z,13.30
2023-04-28T21:18:22.864Z,13.50
2023-04-28T21:20:58.370Z,13.70
2023-04-28T21:23:39.733Z,13.30
2023-04-28T21:26:17.485Z,13.60
2023-04-28T21:29:11.947Z,13.70
2023-04-28T21:31:44.505Z,13.60
2023-04-28T21:34:18.341Z,13.40
2023-04-28T21:36:51.377Z,13.20
2023-04-28T21:39:27.316Z,14.30
2023-04-28T21:42:00.831Z,13.50
2023-04-28T21:44:32.372Z,13.10
2023-04-28T21:47:06.166Z,13.70
2023-04-28T21:49:38.894Z,12.50
2023-04-28T21:52:13.744Z,13.10
2023-04-28T21:54:45.358Z,13.10
2023-04-28T21:57:18.437Z,13.70
2023-04-28T21:59:50.976Z,13.50
2023-04-28T22:02:26.278Z,13.00
2023-04-28T22:05:02.234Z,13.40
2023-04-28T22:07:37.041Z,14.00
2023-04-28T22:10:13.084Z,13.20
2023-04-28T22:12:46.869Z,13.70
2023-04-28T22:15:18.401Z,13.80
2023-04-28T22:17:50.180Z,13.80
2023-04-28T22:20:25.305Z,13.40
2023-04-28T22:22:58.557Z,13.80
2023-04-28T22:25:31.909Z,13.90
2023-04-28T22:28:04.378Z,13.70
2023-04-28T22:30:35.293Z,13.80
2023-04-28T22:33:06.973Z,13.80
2023-04-28T22:35:40.449Z,13.60
2023-04-28T22:38:13.893Z,13.20
2023-04-28T22:40:48.537Z,13.50
2023-04-28T22:43:21.866Z,13.00
2023-04-28T22:45:58.002Z,13.30
2023-04-28T22:48:31.087Z,13.60
2023-04-28T22:51:03.039Z,12.90
2023-04-28T22:53:36.012Z,13.00
2023-04-28T22:56:10.268Z,13.30
2023-04-28T22:58:43.766Z,13.10
2023-04-28T23:01:14.515Z,12.60
2023-04-28T23:03:51.450Z,12.50
2023-04-28T23:06:25.071Z,12.50
2023-04-28T23:08:57.020Z,12.40
2023-04-28T23:11:33.842Z,12.40
2023-04-28T23:14:04.218Z,12.40
2023-04-28T23:16:38.812Z,12.60
2023-04-28T23:19:10.884Z,12.30
2023-04-28T23:21:43.908Z,13.00
2023-04-28T23:24:18.721Z,12.80
2023-04-28T23:26:51.251Z,12.50
2023-04-28T23:29:25.608Z,12.80
2023-04-28T23:31:57.123Z,11.60
2023-04-28T23:34:31.125Z,11.40
2023-04-28T23:37:02.653Z,11.70
2023-04-28T23:39:37.100Z,10.80
2023-04-28T23:42:08.707Z,11.10
2023-04-28T23:44:40.767Z,11.00
2023-04-28T23:47:16.150Z,11.10
2023-04-28T23:49:51.141Z,11.90
2023-04-28T23:52:26.102Z,11.20
2023-04-28T23:55:02.561Z,10.90
2023-04-28T23:57:35.692Z,10.70
